This is the latest recevied weather packets stored in our database for station/object W4OA. If no packets are shown the sender has not sent any weather packets the latest 10 day(s).
| Time | Temp. | Humidity | Pressure | Rain* | Wind** | Luminosity | Snow |
|---|---|---|---|---|---|---|---|
| 1777835099 | 21.67° C | 28% | 1013 hPa | 0 mm | - | 0 W/m² | - |
| 1777834199 | 21.11° C | 32% | 1013 hPa | 0 mm | - | 0 W/m² | - |
| 1777832999 | 21.11° C | 32% | 1013 hPa | 0 mm | - | 0 W/m² | - |
| 1777832699 | 21.11° C | 33% | 1013 hPa | 0 mm | - | 0 W/m² | - |
| 1777832399 | 20.56° C | 32% | 1014 hPa | 0 mm | - | 0 W/m² | - |
| 1777831799 | 20.56° C | 34% | 1014 hPa | 0 mm | - | 0 W/m² | - |
| 1777827599 | 19.44° C | 38% | 1015 hPa | 0 mm | - | 0 W/m² | - |
| 1777825198 | 18.33° C | 39% | 1015 hPa | 0 mm | - | 0 W/m² | - |
| 1777820398 | 16.11° C | 44% | 1015 hPa | 0 mm | - | 0 W/m² | - |
| 1777819798 | 15.56° C | 45% | 1015 hPa | 0 mm | - | 0 W/m² | - |
| 1777811399 | 8.33° C | 91% | 1014 hPa | 0 mm | - | 0 W/m² | - |
| 1777809899 | 7.22° C | 93% | 1014 hPa | 0 mm | - | 0 W/m² | - |
| 1777809299 | 7.22° C | 93% | 1014 hPa | 0 mm | - | 0 W/m² | - |
| 1777805999 | 6.67° C | 93% | 1013 hPa | 0 mm | - | 0 W/m² | - |
| 1777801199 | 6.67° C | 92% | 1013 hPa | 0 mm | - | 0 W/m² | - |
| 1777800898 | 6.67° C | 92% | 1013 hPa | 0 mm | - | 0 W/m² | - |
| 1777800599 | 6.67° C | 92% | 1013 hPa | 0 mm | - | 0 W/m² | - |
| 1777800299 | 6.67° C | 92% | 1013 hPa | 0 mm | - | 0 W/m² | - |
| 1777799999 | 6.67° C | 92% | 1013 hPa | 0 mm | - | 0 W/m² | - |
| 1777799699 | 6.67° C | 92% | 1013 hPa | 0 mm | - | 0 W/m² | - |
| 1777799399 | 6.67° C | 92% | 1013 hPa | 0 mm | - | 0 W/m² | - |
| 1777799100 | 6.67° C | 92% | 1013 hPa | 0 mm | - | 0 W/m² | - |
| 1777798798 | 6.67° C | 92% | 1013 hPa | 0 mm | - | 0 W/m² | - |
| 1777798499 | 6.67° C | 92% | 1013 hPa | 0 mm | - | 0 W/m² | - |
| 1777798198 | 6.67° C | 92% | 1013 hPa | 0 mm | - | 0 W/m² | - |
* Rain latest hour (hover to see other rain measurements)
** Current wind speed in m/s (hover to see current wind gust speed)